Time;durP1;ratioP1;P1;durP2;ratioP2;P2;SDS_P1;SDS_P2;PMS_P1;PMS_P2;Temp;Humidity;BMP_temperature;BMP_pressure;BME280_temperature;BME280_humidity;BME280_pressure;Samples;Min_cycle;Max_cycle;Signal;HPM_P1;HPM_P2
2022/08/28 00:00:32;;;;;;;;;;;;;;;-155.54;100.00;57697.75;5002725;28;20415;-70
2022/08/28 00:02:57;;;;;;;;;;;;;;;-155.54;100.00;57697.75;5001212;28;19921;-70
2022/08/28 00:05:23;;;;;;;;;;;;;;;-155.54;100.00;57697.75;5000173;28;20099;-61
2022/08/28 00:07:48;;;;;;;;;;;;;;;-155.54;100.00;57697.75;4994391;28;20020;-61
2022/08/28 00:10:15;;;;;;;;;;;;;;;-155.54;100.00;57697.75;5000681;28;19921;-61
2022/08/28 00:12:40;;;;;;;;;;;;;;;-155.54;100.00;57697.75;5000817;28;20431;-61
2022/08/28 00:15:07;;;;;;;;;;;;;;;-155.54;100.00;57697.75;5000017;28;20004;-61
2022/08/28 00:17:32;;;;;;;;;;;;;;;-155.54;100.00;57697.75;4998483;28;20393;-61
2022/08/28 00:19:57;;;;;;;;;;;;;;;-155.54;100.00;57697.75;4998488;28;19960;-61
2022/08/28 00:22:23;;;;;;;;;;;;;;;-155.54;100.00;57697.75;4998339;28;20413;-61
2022/08/28 00:24:48;;;;;;;;;;;;;;;-155.54;100.00;57697.75;4997805;28;20334;-61
2022/08/28 00:27:59;;;;;;;;;;;;;;;-155.54;100.00;57697.75;4994150;28;20131;-61
2022/08/28 00:29:59;;;;;;;;;;;;;;;-155.54;100.00;57697.75;4979357;28;20328;-61
2022/08/28 00:32:24;;;;;;;;;;;;;;;-155.54;100.00;57697.75;5001216;28;20115;-61
2022/08/28 00:34:49;;;;;;;;;;;;;;;-155.54;100.00;57697.75;5001226;28;19925;-61
2022/08/28 00:37:15;;;;;;;;;;;;;;;-155.54;100.00;57697.75;4999901;28;20371;-61
2022/08/28 00:39:40;;;;;;;;;;;;;;;-155.54;100.00;57697.75;5000389;28;20476;-61
2022/08/28 00:42:05;;;;;;;;;;;;;;;-155.54;100.00;57697.75;4999172;28;20429;-61
2022/08/28 00:44:31;;;;;;;;;;;;;;;-155.54;100.00;57697.75;5003306;28;19928;-61
2022/08/28 00:46:56;;;;;;;;;;;;;;;-155.54;100.00;57697.75;5003212;28;19936;-61
2022/08/28 00:49:23;;;;;;;;;;;;;;;-155.54;100.00;57697.75;5004053;28;19922;-61
2022/08/28 00:54:32;;;;;;;;;;;;;;;-155.54;100.00;57697.75;4999842;28;19948;-61
2022/08/28 00:56:58;;;;;;;;;;;;;;;-155.54;100.00;57697.75;4999363;28;20289;-61
2022/08/28 00:59:23;;;;;;;;;;;;;;;-155.54;100.00;57697.75;5005339;28;19913;-61
2022/08/28 01:01:49;;;;;;;;;;;;;;;-155.54;100.00;57697.75;5002435;28;19932;-61
2022/08/28 01:04:15;;;;;;;;;;;;;;;-155.54;100.00;57697.75;5004629;28;19918;-61
2022/08/28 01:06:41;;;;;;;;;;;;;;;-155.54;100.00;57697.75;4984798;28;19922;-61
2022/08/28 01:09:06;;;;;;;;;;;;;;;-155.54;100.00;57697.75;5003543;28;20525;-61
2022/08/28 01:11:31;;;;;;;;;;;;;;;-155.54;100.00;57697.75;5004020;28;20039;-61
2022/08/28 01:13:58;;;;;;;;;;;;;;;-155.54;100.00;57697.75;5001851;28;20533;-61
2022/08/28 01:16:23;;;;;;;;;;;;;;;-155.54;100.00;57697.75;5003646;28;19917;-61
2022/08/28 01:18:49;;;;;;;;;;;;;;;-155.54;100.00;57697.75;4984597;28;19922;-61
2022/08/28 01:21:15;;;;;;;;;;;;;;;-155.54;100.00;57697.75;5002995;28;20072;-61
2022/08/28 01:24:03;;;;;;;;;;;;;;;-155.54;100.00;57697.75;5001825;28;19980;-61
2022/08/28 01:26:28;;;;;;;;;;;;;;;-155.54;100.00;57697.75;4991568;28;19952;-61
2022/08/28 01:28:54;;;;;;;;;;;;;;;-155.54;100.00;57697.75;4984705;28;19917;-61
2022/08/28 01:31:20;;;;;;;;;;;;;;;-155.54;100.00;57697.75;4984731;28;19950;-61
2022/08/28 01:33:45;;;;;;;;;;;;;;;-155.54;100.00;57697.75;4999497;28;19972;-61
2022/08/28 01:36:11;;;;;;;;;;;;;;;-155.54;100.00;57697.75;5001319;28;20024;-61
2022/08/28 01:38:37;;;;;;;;;;;;;;;-155.54;100.00;57697.75;5001195;28;19921;-61
2022/08/28 01:41:02;;;;;;;;;;;;;;;-155.54;100.00;57697.75;5000833;28;19941;-61
2022/08/28 01:43:29;;;;;;;;;;;;;;;-155.54;100.00;57697.75;5003259;28;20466;-61
2022/08/28 01:45:56;;;;;;;;;;;;;;;-155.54;100.00;57697.75;4999175;28;20492;-61
2022/08/28 01:48:22;;;;;;;;;;;;;;;-155.54;100.00;57697.75;5002613;28;20370;-61
2022/08/28 01:50:47;;;;;;;;;;;;;;;-155.54;100.00;57697.75;4998011;28;20441;-61
2022/08/28 01:53:14;;;;;;;;;;;;;;;-155.54;100.00;57697.75;4999405;28;19933;-61
2022/08/28 01:55:39;;;;;;;;;;;;;;;-155.54;100.00;57697.75;5002548;28;20206;-61
2022/08/28 01:58:05;;;;;;;;;;;;;;;-155.54;100.00;57697.75;4984924;28;19925;-61
2022/08/28 02:00:30;;;;;;;;;;;;;;;-155.54;100.00;57697.75;5002467;28;19924;-61
2022/08/28 02:02:56;;;;;;;;;;;;;;;-155.54;100.00;57697.75;5002187;28;19944;-61
2022/08/28 02:05:22;;;;;;;;;;;;;;;-155.54;100.00;57697.75;5001263;28;20507;-61
2022/08/28 02:07:47;;;;;;;;;;;;;;;-155.54;100.00;57697.75;4999808;28;19925;-61
2022/08/28 02:10:12;;;;;;;;;;;;;;;-155.54;100.00;57697.75;4999867;28;20496;-61
2022/08/28 02:12:37;;;;;;;;;;;;;;;-155.54;100.00;57697.75;4999729;28;19918;-61
2022/08/28 02:15:04;;;;;;;;;;;;;;;-155.54;100.00;57697.75;4998095;28;20505;-61
2022/08/28 02:17:29;;;;;;;;;;;;;;;-155.54;100.00;57697.75;4983482;28;20484;-61
2022/08/28 02:19:54;;;;;;;;;;;;;;;-155.54;100.00;57697.75;4999283;28;20024;-61
2022/08/28 02:22:19;;;;;;;;;;;;;;;-155.54;100.00;57697.75;4999046;28;19961;-61
2022/08/28 02:24:45;;;;;;;;;;;;;;;-155.54;100.00;57697.75;4998440;28;19922;-61
2022/08/28 02:27:10;;;;;;;;;;;;;;;-155.54;100.00;57697.75;5000719;28;19979;-61
2022/08/28 02:29:36;;;;;;;;;;;;;;;-155.54;100.00;57697.75;4996527;28;19967;-61
2022/08/28 02:32:01;;;;;;;;;;;;;;;-155.54;100.00;57697.75;5002054;28;19975;-61
2022/08/28 02:34:26;;;;;;;;;;;;;;;-155.54;100.00;57697.75;5003253;28;19965;-61
2022/08/28 02:36:51;;;;;;;;;;;;;;;-155.54;100.00;57697.75;5002623;28;19917;-61
2022/08/28 02:39:17;;;;;;;;;;;;;;;-155.54;100.00;57697.75;5001989;28;20337;-61
2022/08/28 02:41:42;;;;;;;;;;;;;;;-155.54;100.00;57697.75;5000606;28;19925;-60
2022/08/28 02:44:07;;;;;;;;;;;;;;;-155.54;100.00;57697.75;5001942;28;19945;-60
2022/08/28 02:46:32;;;;;;;;;;;;;;;-155.54;100.00;57697.75;5001954;28;19976;-61
2022/08/28 02:48:58;;;;;;;;;;;;;;;-155.54;100.00;57697.75;4997336;28;19922;-60
2022/08/28 02:51:23;;;;;;;;;;;;;;;-155.54;100.00;57697.75;5003082;28;20306;-60
2022/08/28 02:53:49;;;;;;;;;;;;;;;-155.54;100.00;57697.75;4999459;28;19969;-60
2022/08/28 02:56:15;;;;;;;;;;;;;;;-155.54;100.00;57697.75;5002530;28;20321;-61
2022/08/28 02:58:40;;;;;;;;;;;;;;;-155.54;100.00;57697.75;5001525;28;19948;-60
2022/08/28 03:01:06;;;;;;;;;;;;;;;-155.54;100.00;57697.75;5002730;28;19925;-60
2022/08/28 03:03:31;;;;;;;;;;;;;;;-155.54;100.00;57697.75;5001935;28;19926;-61
2022/08/28 03:06:00;;;;;;;;;;;;;;;-155.54;100.00;57697.75;5002174;28;20041;-61
2022/08/28 03:08:25;;;;;;;;;;;;;;;-155.54;100.00;57697.75;5000398;28;19922;-60
2022/08/28 03:10:50;;;;;;;;;;;;;;;-155.54;100.00;57697.75;5001582;28;19925;-60
2022/08/28 03:13:16;;;;;;;;;;;;;;;-155.54;100.00;57697.75;4998052;28;19925;-61
2022/08/28 03:15:42;;;;;;;;;;;;;;;-155.54;100.00;57697.75;5002361;28;20756;-61
2022/08/28 03:18:08;;;;;;;;;;;;;;;-155.54;100.00;57697.75;4997337;28;19934;-61
2022/08/28 03:20:33;;;;;;;;;;;;;;;-155.54;100.00;57697.75;5001112;28;19924;-61
2022/08/28 03:25:42;;;;;;;;;;;;;;;-155.54;100.00;57697.75;5000350;28;20129;-61
2022/08/28 03:28:07;;;;;;;;;;;;;;;-155.54;100.00;57697.75;4993497;28;19922;-61
2022/08/28 03:30:33;;;;;;;;;;;;;;;-155.54;100.00;57697.75;4998408;28;19949;-61
2022/08/28 03:32:58;;;;;;;;;;;;;;;-155.54;100.00;57697.75;4998300;28;19918;-60
2022/08/28 03:35:23;;;;;;;;;;;;;;;-155.54;100.00;57697.75;4997109;28;19929;-61
2022/08/28 03:37:48;;;;;;;;;;;;;;;-155.54;100.00;57697.75;4996730;28;20008;-60
2022/08/28 03:40:14;;;;;;;;;;;;;;;-155.54;100.00;57697.75;4999546;28;19964;-61
2022/08/28 03:42:39;;;;;;;;;;;;;;;-155.54;100.00;57697.75;5000506;28;19922;-60
2022/08/28 03:45:06;;;;;;;;;;;;;;;-155.54;100.00;57697.75;5001520;28;20330;-61
2022/08/28 03:47:34;;;;;;;;;;;;;;;-155.54;100.00;57697.75;4997049;28;19991;-61
2022/08/28 03:49:59;;;;;;;;;;;;;;;-155.54;100.00;57697.75;5000024;28;20397;-61
2022/08/28 03:52:24;;;;;;;;;;;;;;;-155.54;100.00;57697.75;4999222;28;19928;-61
2022/08/28 03:54:49;;;;;;;;;;;;;;;-155.54;100.00;57697.75;5000532;28;20293;-61
2022/08/28 03:57:17;;;;;;;;;;;;;;;-155.54;100.00;57697.75;5000336;28;19975;-61
2022/08/28 03:59:42;;;;;;;;;;;;;;;-155.54;100.00;57697.75;4999865;28;20293;-61
2022/08/28 04:02:07;;;;;;;;;;;;;;;-155.54;100.00;57697.75;4995928;28;20226;-61
2022/08/28 04:04:33;;;;;;;;;;;;;;;-155.54;100.00;57697.75;5000337;28;19926;-61
2022/08/28 04:06:58;;;;;;;;;;;;;;;-155.54;100.00;57697.75;4998548;28;20294;-60
2022/08/28 04:09:23;;;;;;;;;;;;;;;-155.54;100.00;57697.75;5000479;28;20028;-61
2022/08/28 04:11:48;;;;;;;;;;;;;;;-155.54;100.00;57697.75;4999125;28;20238;-61
2022/08/28 04:14:14;;;;;;;;;;;;;;;-155.54;100.00;57697.75;5000533;28;19969;-61
2022/08/28 04:16:40;;;;;;;;;;;;;;;-155.54;100.00;57697.75;4997374;28;20016;-60
2022/08/28 04:19:05;;;;;;;;;;;;;;;-155.54;100.00;57697.75;5000642;28;19917;-60
2022/08/28 04:21:30;;;;;;;;;;;;;;;-155.54;100.00;57697.75;4999313;28;19960;-61
2022/08/28 04:23:56;;;;;;;;;;;;;;;-155.54;100.00;57697.75;4996307;28;19925;-61
2022/08/28 04:26:22;;;;;;;;;;;;;;;-155.54;100.00;57697.75;4999005;28;20254;-60
2022/08/28 04:28:47;;;;;;;;;;;;;;;-155.54;100.00;57697.75;4993127;28;20475;-60
2022/08/28 04:31:13;;;;;;;;;;;;;;;-155.54;100.00;57697.75;4994848;28;19945;-61
2022/08/28 04:33:39;;;;;;;;;;;;;;;-155.54;100.00;57697.75;4996727;28;19960;-61
2022/08/28 04:36:05;;;;;;;;;;;;;;;-155.54;100.00;57697.75;4978437;28;19914;-61
2022/08/28 04:38:30;;;;;;;;;;;;;;;-155.54;100.00;57697.75;4997544;28;20501;-61
2022/08/28 04:40:55;;;;;;;;;;;;;;;-155.54;100.00;57697.75;4996621;28;19918;-61
2022/08/28 04:43:20;;;;;;;;;;;;;;;-155.54;100.00;57697.75;5001092;28;20012;-60
2022/08/28 04:45:46;;;;;;;;;;;;;;;-155.54;100.00;57697.75;4994728;28;20266;-60
2022/08/28 04:48:11;;;;;;;;;;;;;;;-155.54;100.00;57697.75;5001471;28;19924;-61
2022/08/28 04:50:40;;;;;;;;;;;;;;;-155.54;100.00;57697.75;4998738;28;19933;-61
2022/08/28 04:53:05;;;;;;;;;;;;;;;-155.54;100.00;57697.75;4997412;28;19921;-60
2022/08/28 04:55:30;;;;;;;;;;;;;;;-155.54;100.00;57697.75;4999194;28;20566;-61
2022/08/28 04:57:56;;;;;;;;;;;;;;;-155.54;100.00;57697.75;4998977;28;20351;-61
2022/08/28 05:00:22;;;;;;;;;;;;;;;-155.54;100.00;57697.75;4998266;28;19968;-60
2022/08/28 05:02:47;;;;;;;;;;;;;;;-155.54;100.00;57697.75;4981959;28;19976;-60
2022/08/28 05:05:13;;;;;;;;;;;;;;;-155.54;100.00;57697.75;4996110;28;19928;-61
2022/08/28 05:07:38;;;;;;;;;;;;;;;-155.54;100.00;57697.75;4981615;28;20366;-60
2022/08/28 05:10:03;;;;;;;;;;;;;;;-155.54;100.00;57697.75;4999995;28;19921;-61
2022/08/28 05:12:29;;;;;;;;;;;;;;;-155.54;100.00;57697.75;5001280;28;20032;-60
2022/08/28 05:14:54;;;;;;;;;;;;;;;-155.54;100.00;57697.75;4999623;28;19932;-60
2022/08/28 05:17:19;;;;;;;;;;;;;;;-155.54;100.00;57697.75;4997147;28;20016;-61
2022/08/28 05:19:46;;;;;;;;;;;;;;;-155.54;100.00;57697.75;4996239;28;20198;-61
2022/08/28 05:22:12;;;;;;;;;;;;;;;-155.54;100.00;57697.75;4997989;28;20259;-61
2022/08/28 05:24:38;;;;;;;;;;;;;;;-155.54;100.00;57697.75;4976075;28;20076;-61
2022/08/28 05:27:03;;;;;;;;;;;;;;;-155.54;100.00;57697.75;4999103;28;19917;-60
2022/08/28 05:29:28;;;;;;;;;;;;;;;-155.54;100.00;57697.75;4994192;28;19933;-61
2022/08/28 05:31:54;;;;;;;;;;;;;;;-155.54;100.00;57697.75;5002539;28;19918;-61
2022/08/28 05:34:19;;;;;;;;;;;;;;;-155.54;100.00;57697.75;4998516;28;19930;-61
2022/08/28 05:36:45;;;;;;;;;;;;;;;-155.54;100.00;57697.75;5002649;28;20548;-61
2022/08/28 05:39:10;;;;;;;;;;;;;;;-155.54;100.00;57697.75;4997339;28;19922;-61
2022/08/28 05:41:35;;;;;;;;;;;;;;;-155.54;100.00;57697.75;5004240;28;20285;-61
2022/08/28 05:44:02;;;;;;;;;;;;;;;-155.54;100.00;57697.75;4998873;28;20254;-60
2022/08/28 05:46:27;;;;;;;;;;;;;;;-155.54;100.00;57697.75;5001088;28;19935;-60
2022/08/28 05:48:53;;;;;;;;;;;;;;;-155.54;100.00;57697.75;5003712;28;20281;-61
2022/08/28 05:51:19;;;;;;;;;;;;;;;-155.54;100.00;57697.75;5003329;28;19929;-60
2022/08/28 05:53:45;;;;;;;;;;;;;;;-155.54;100.00;57697.75;4999398;28;19939;-61
2022/08/28 05:56:11;;;;;;;;;;;;;;;-155.54;100.00;57697.75;5002682;28;19928;-61
2022/08/28 05:58:36;;;;;;;;;;;;;;;-155.54;100.00;57697.75;5003427;28;19929;-61
2022/08/28 06:01:05;;;;;;;;;;;;;;;-155.54;100.00;57697.75;5001607;28;20186;-60
2022/08/28 06:03:30;;;;;;;;;;;;;;;-155.54;100.00;57697.75;5002092;28;19917;-61
2022/08/28 06:05:56;;;;;;;;;;;;;;;-155.54;100.00;57697.75;4982634;28;20365;-61
2022/08/28 06:08:21;;;;;;;;;;;;;;;-155.54;100.00;57697.75;5002137;28;20007;-61
2022/08/28 06:10:47;;;;;;;;;;;;;;;-155.54;100.00;57697.75;5000799;28;19924;-61
2022/08/28 06:13:12;;;;;;;;;;;;;;;-155.54;100.00;57697.75;5001020;28;20343;-60
2022/08/28 06:15:44;;;;;;;;;;;;;;;-155.54;100.00;57697.75;5001153;28;20147;-61
2022/08/28 06:18:09;;;;;;;;;;;;;;;-155.54;100.00;57697.75;4998891;28;19921;-61
2022/08/28 06:20:36;;;;;;;;;;;;;;;-155.54;100.00;57697.75;5001432;28;20378;-61
2022/08/28 06:23:01;;;;;;;;;;;;;;;-155.54;100.00;57697.75;4999232;28;20342;-61
2022/08/28 06:25:26;;;;;;;;;;;;;;;-155.54;100.00;57697.75;5000482;28;19932;-61
2022/08/28 06:27:51;;;;;;;;;;;;;;;-155.54;100.00;57697.75;5000824;28;20227;-61
2022/08/28 06:30:17;;;;;;;;;;;;;;;-155.54;100.00;57697.75;4998643;28;19968;-61
2022/08/28 06:32:42;;;;;;;;;;;;;;;-155.54;100.00;57697.75;4997086;28;19933;-61
2022/08/28 06:35:07;;;;;;;;;;;;;;;-155.54;100.00;57697.75;5000966;28;19968;-61
2022/08/28 06:37:32;;;;;;;;;;;;;;;-155.54;100.00;57697.75;5000671;28;19922;-61
2022/08/28 06:39:58;;;;;;;;;;;;;;;-155.54;100.00;57697.75;5002553;28;19972;-61
2022/08/28 06:42:24;;;;;;;;;;;;;;;-155.54;100.00;57697.75;4998811;28;20004;-61
2022/08/28 06:44:49;;;;;;;;;;;;;;;-155.54;100.00;57697.75;5000914;28;19976;-61
2022/08/28 06:47:14;;;;;;;;;;;;;;;-155.54;100.00;57697.75;5001241;28;20031;-61
2022/08/28 06:49:40;;;;;;;;;;;;;;;-155.54;100.00;57697.75;5001962;28;20535;-61
2022/08/28 06:52:05;;;;;;;;;;;;;;;-155.54;100.00;57697.75;5001142;28;20027;-61
2022/08/28 06:54:30;;;;;;;;;;;;;;;-155.54;100.00;57697.75;5001655;28;19957;-61
2022/08/28 06:56:56;;;;;;;;;;;;;;;-155.54;100.00;57697.75;5000533;28;20276;-61
2022/08/28 06:59:21;;;;;;;;;;;;;;;-155.54;100.00;57697.75;5002787;28;19968;-61
2022/08/28 07:01:48;;;;;;;;;;;;;;;-155.54;100.00;57697.75;4999060;28;20296;-61
2022/08/28 07:04:13;;;;;;;;;;;;;;;-155.54;100.00;57697.75;4999856;28;20370;-61
2022/08/28 07:06:39;;;;;;;;;;;;;;;-155.54;100.00;57697.75;4999795;28;19996;-61
2022/08/28 07:09:05;;;;;;;;;;;;;;;-155.54;100.00;57697.75;5001695;28;20388;-61
2022/08/28 07:11:30;;;;;;;;;;;;;;;-155.54;100.00;57697.75;5000195;28;19944;-61
2022/08/28 07:13:55;;;;;;;;;;;;;;;-155.54;100.00;57697.75;4998716;28;20126;-61
2022/08/28 07:16:22;;;;;;;;;;;;;;;-155.54;100.00;57697.75;4980272;28;19967;-61
2022/08/28 07:18:47;;;;;;;;;;;;;;;-155.54;100.00;57697.75;4980521;28;19969;-61
2022/08/28 07:21:12;;;;;;;;;;;;;;;-155.54;100.00;57697.75;4996969;28;19968;-61
2022/08/28 07:23:38;;;;;;;;;;;;;;;-155.54;100.00;57697.75;5000554;28;19910;-61
2022/08/28 07:26:04;;;;;;;;;;;;;;;-155.54;100.00;57697.75;4984116;28;19944;-62
2022/08/28 07:28:29;;;;;;;;;;;;;;;-155.54;100.00;57697.75;4997877;28;19918;-61
2022/08/28 07:31:02;;;;;;;;;;;;;;;-155.54;100.00;57697.75;4979032;28;20118;-61
2022/08/28 07:33:27;;;;;;;;;;;;;;;-155.54;100.00;57697.75;5000294;28;20037;-61
2022/08/28 07:35:53;;;;;;;;;;;;;;;-155.54;100.00;57697.75;4983563;28;20033;-61
2022/08/28 07:38:18;;;;;;;;;;;;;;;-155.54;100.00;57697.75;4999644;28;19965;-62
2022/08/28 07:40:43;;;;;;;;;;;;;;;-155.54;100.00;57697.75;4997431;28;19921;-61
2022/08/28 07:45:57;;;;;;;;;;;;;;;-155.54;100.00;57697.75;4998919;28;19933;-61
2022/08/28 07:48:22;;;;;;;;;;;;;;;-155.54;100.00;57697.75;5000399;28;19926;-61
2022/08/28 07:50:48;;;;;;;;;;;;;;;-155.54;100.00;57697.75;4997050;28;19925;-61
2022/08/28 07:53:14;;;;;;;;;;;;;;;-155.54;100.00;57697.75;4999615;28;20012;-61
2022/08/28 07:55:39;;;;;;;;;;;;;;;-155.54;100.00;57697.75;4997902;28;19929;-62
2022/08/28 07:58:04;;;;;;;;;;;;;;;-155.54;100.00;57697.75;5000254;28;19992;-61
2022/08/28 08:00:29;;;;;;;;;;;;;;;-155.54;100.00;57697.75;4999384;28;19994;-61
2022/08/28 08:02:55;;;;;;;;;;;;;;;-155.54;100.00;57697.75;4983442;28;20048;-61
2022/08/28 08:05:20;;;;;;;;;;;;;;;-155.54;100.00;57697.75;5000005;28;20011;-61
2022/08/28 08:07:46;;;;;;;;;;;;;;;-155.54;100.00;57697.75;5000810;28;19972;-62
2022/08/28 08:10:13;;;;;;;;;;;;;;;-155.54;100.00;57697.75;4999265;28;20435;-62
2022/08/28 08:12:41;;;;;;;;;;;;;;;-155.54;100.00;57697.75;5001260;28;19931;-61
2022/08/28 08:15:07;;;;;;;;;;;;;;;-155.54;100.00;57697.75;5001753;28;20003;-61
2022/08/28 08:17:32;;;;;;;;;;;;;;;-155.54;100.00;57697.75;4999149;28;20494;-61
2022/08/28 08:19:58;;;;;;;;;;;;;;;-155.54;100.00;57697.75;5001073;28;20439;-62
2022/08/28 08:22:23;;;;;;;;;;;;;;;-155.54;100.00;57697.75;4998004;28;20758;-62
2022/08/28 08:24:49;;;;;;;;;;;;;;;-155.54;100.00;57697.75;4996853;28;20025;-63
2022/08/28 08:27:15;;;;;;;;;;;;;;;-155.54;100.00;57697.75;4998411;28;19998;-62
2022/08/28 08:29:40;;;;;;;;;;;;;;;-155.54;100.00;57697.75;4994356;28;20084;-62
2022/08/28 08:32:07;;;;;;;;;;;;;;;-155.54;100.00;57697.75;4997738;28;20461;-62
2022/08/28 08:34:40;;;;;;;;;;;;;;;-155.54;100.00;57697.75;4999691;28;20539;-63
2022/08/28 08:37:05;;;;;;;;;;;;;;;-155.54;100.00;57697.75;5000698;28;19973;-62
2022/08/28 08:39:31;;;;;;;;;;;;;;;-155.54;100.00;57697.75;5000008;28;20442;-62
2022/08/28 08:41:57;;;;;;;;;;;;;;;-155.54;100.00;57697.75;4996954;28;20544;-62
2022/08/28 08:44:28;;;;;;;;;;;;;;;-155.54;100.00;57697.75;5001437;28;20480;-63
2022/08/28 08:47:12;;;;;;;;;;;;;;;-155.54;100.00;57697.75;4996996;28;20005;-62
2022/08/28 08:49:38;;;;;;;;;;;;;;;-155.54;100.00;57697.75;5000031;28;20003;-63
2022/08/28 08:52:06;;;;;;;;;;;;;;;-155.54;100.00;57697.75;4966709;28;20024;-65
2022/08/28 08:54:32;;;;;;;;;;;;;;;-155.54;100.00;57697.75;4998201;28;20470;-62
2022/08/28 08:56:57;;;;;;;;;;;;;;;-155.54;100.00;57697.75;5000006;28;20005;-62
2022/08/28 08:59:24;;;;;;;;;;;;;;;-155.54;100.00;57697.75;4981147;28;19976;-66
2022/08/28 09:02:00;;;;;;;;;;;;;;;-155.54;100.00;57697.75;5000318;28;20033;-66
2022/08/28 09:04:33;;;;;;;;;;;;;;;-155.54;100.00;57697.75;4993800;28;20457;-66
2022/08/28 09:06:59;;;;;;;;;;;;;;;-155.54;100.00;57697.75;4983193;28;19987;-66
2022/08/28 09:09:34;;;;;;;;;;;;;;;-155.54;100.00;57697.75;5002561;28;19990;-67
2022/08/28 09:12:02;;;;;;;;;;;;;;;-155.54;100.00;57697.75;5003963;28;20043;-66
2022/08/28 09:14:46;;;;;;;;;;;;;;;-155.54;100.00;57697.75;5004222;28;19999;-62
2022/08/28 09:17:11;;;;;;;;;;;;;;;-155.54;100.00;57697.75;5000050;28;19969;-63
2022/08/28 09:19:36;;;;;;;;;;;;;;;-155.54;100.00;57697.75;5001665;28;19972;-67
2022/08/28 09:22:02;;;;;;;;;;;;;;;-155.54;100.00;57697.75;5001854;28;20506;-67
2022/08/28 09:24:28;;;;;;;;;;;;;;;-155.54;100.00;57697.75;4995796;28;19976;-67
2022/08/28 09:27:03;;;;;;;;;;;;;;;-155.54;100.00;57697.75;4996618;28;19925;-67
2022/08/28 09:29:38;;;;;;;;;;;;;;;-155.54;100.00;57697.75;5001742;28;19921;-63
2022/08/28 09:32:23;;;;;;;;;;;;;;;-155.54;100.00;57697.75;5001180;28;19988;-62
2022/08/28 09:34:58;;;;;;;;;;;;;;;-155.54;100.00;57697.75;4998587;28;19922;-62
2022/08/28 09:37:26;;;;;;;;;;;;;;;-155.54;100.00;57697.75;5000946;28;19917;-62
2022/08/28 09:40:04;;;;;;;;;;;;;;;-155.54;100.00;57697.75;4997908;28;20117;-63
2022/08/28 09:45:19;;;;;;;;;;;;;;;-155.54;100.00;57697.75;4998140;28;19935;-61
2022/08/28 09:47:49;;;;;;;;;;;;;;;-155.54;100.00;57697.75;4994165;28;19917;-62
2022/08/28 09:50:14;;;;;;;;;;;;;;;-155.54;100.00;57697.75;4999053;28;20398;-62
2022/08/28 09:52:40;;;;;;;;;;;;;;;-155.54;100.00;57697.75;5002802;28;19924;-61
2022/08/28 09:55:05;;;;;;;;;;;;;;;-155.54;100.00;57697.75;5002877;28;19925;-61
2022/08/28 09:57:30;;;;;;;;;;;;;;;-155.54;100.00;57697.75;5002153;28;19933;-62
2022/08/28 09:59:56;;;;;;;;;;;;;;;-155.54;100.00;57697.75;5003537;28;20024;-63
2022/08/28 10:02:41;;;;;;;;;;;;;;;-155.54;100.00;57697.75;5003728;28;20402;-62
2022/08/28 10:05:11;;;;;;;;;;;;;;;-155.54;100.00;57697.75;5004206;28;19913;-63
2022/08/28 10:07:40;;;;;;;;;;;;;;;-155.54;100.00;57697.75;5004184;28;19959;-62
2022/08/28 10:10:12;;;;;;;;;;;;;;;-155.54;100.00;57697.75;4984925;28;20085;-64
2022/08/28 10:12:41;;;;;;;;;;;;;;;-155.54;100.00;57697.75;5002061;28;20619;-63
2022/08/28 10:15:17;;;;;;;;;;;;;;;-155.54;100.00;57697.75;5001793;28;20130;-62
2022/08/28 10:18:01;;;;;;;;;;;;;;;-155.54;100.00;57697.75;4979441;28;19988;-68
2022/08/28 10:20:35;;;;;;;;;;;;;;;-155.54;100.00;57697.75;4998931;28;19986;-68
2022/08/28 10:23:17;;;;;;;;;;;;;;;-155.54;100.00;57697.75;5002139;28;20428;-62
2022/08/28 10:25:55;;;;;;;;;;;;;;;-155.54;100.00;57697.75;5002937;28;20077;-63
2022/08/28 10:28:37;;;;;;;;;;;;;;;-155.54;100.00;57697.75;4982356;28;20443;-63
2022/08/28 10:31:08;;;;;;;;;;;;;;;-155.54;100.00;57697.75;4985235;28;20018;-63
2022/08/28 10:33:37;;;;;;;;;;;;;;;-155.54;100.00;57697.75;4986120;28;20602;-63
2022/08/28 10:36:07;;;;;;;;;;;;;;;-155.54;100.00;57697.75;5004062;28;19987;-63
2022/08/28 10:38:40;;;;;;;;;;;;;;;-155.54;100.00;57697.75;4986096;28;19981;-68
2022/08/28 10:41:23;;;;;;;;;;;;;;;-155.54;100.00;57697.75;4996472;28;19914;-68
2022/08/28 10:43:49;;;;;;;;;;;;;;;-155.54;100.00;57697.75;4985237;28;19956;-69
2022/08/28 10:46:35;;;;;;;;;;;;;;;-155.54;100.00;57697.75;5000924;28;20309;-68
2022/08/28 10:49:02;;;;;;;;;;;;;;;-155.54;100.00;57697.75;4994932;28;19913;-66
2022/08/28 10:51:27;;;;;;;;;;;;;;;-155.54;100.00;57697.75;4997544;28;20000;-67
2022/08/28 10:53:53;;;;;;;;;;;;;;;-155.54;100.00;57697.75;5000609;28;20390;-66
2022/08/28 10:56:24;;;;;;;;;;;;;;;-155.54;100.00;57697.75;4985801;28;19921;-67
2022/08/28 10:58:51;;;;;;;;;;;;;;;-155.54;100.00;57697.75;4997351;28;20437;-62
2022/08/28 11:01:24;;;;;;;;;;;;;;;-155.54;100.00;57697.75;4998100;28;20382;-63
2022/08/28 11:03:50;;;;;;;;;;;;;;;-155.54;100.00;57697.75;5001180;28;20419;-62
2022/08/28 11:06:30;;;;;;;;;;;;;;;-155.54;100.00;57697.75;4981551;28;19925;-62
2022/08/28 11:08:55;;;;;;;;;;;;;;;-155.54;100.00;57697.75;4994701;28;19924;-62
2022/08/28 11:11:40;;;;;;;;;;;;;;;-155.54;100.00;57697.75;4995230;28;19917;-62
2022/08/28 11:14:05;;;;;;;;;;;;;;;-155.54;100.00;57697.75;5001165;28;19925;-62
2022/08/28 11:16:31;;;;;;;;;;;;;;;-155.54;100.00;57697.75;4983981;28;19924;-62
2022/08/28 11:18:58;;;;;;;;;;;;;;;-155.54;100.00;57697.75;5002926;28;20289;-62
2022/08/28 11:21:25;;;;;;;;;;;;;;;-155.54;100.00;57697.75;5003197;28;19925;-62
2022/08/28 11:24:10;;;;;;;;;;;;;;;-155.54;100.00;57697.75;5001357;28;19943;-62
2022/08/28 11:26:40;;;;;;;;;;;;;;;-155.54;100.00;57697.75;4978692;28;19933;-62
2022/08/28 11:29:05;;;;;;;;;;;;;;;-155.54;100.00;57697.75;4982454;28;19918;-63
2022/08/28 11:31:31;;;;;;;;;;;;;;;-155.54;100.00;57697.75;4983363;28;20036;-62
2022/08/28 11:33:58;;;;;;;;;;;;;;;-155.54;100.00;57697.75;4994546;28;19980;-61
2022/08/28 11:36:28;;;;;;;;;;;;;;;-155.54;100.00;57697.75;4998314;28;19944;-61
2022/08/28 11:38:54;;;;;;;;;;;;;;;-155.54;100.00;57697.75;4997093;28;19922;-62
2022/08/28 11:41:25;;;;;;;;;;;;;;;-155.54;100.00;57697.75;4999313;28;19968;-62
2022/08/28 11:44:09;;;;;;;;;;;;;;;-155.54;100.00;57697.75;4996883;28;19947;-62
2022/08/28 11:46:35;;;;;;;;;;;;;;;-155.54;100.00;57697.75;5002542;28;19933;-62
2022/08/28 11:49:01;;;;;;;;;;;;;;;-155.54;100.00;57697.75;5002532;28;19922;-62
2022/08/28 11:51:35;;;;;;;;;;;;;;;-155.54;100.00;57697.75;4978888;28;19925;-62
2022/08/28 11:54:20;;;;;;;;;;;;;;;-155.54;100.00;57697.75;4978850;28;19929;-63
2022/08/28 11:56:45;;;;;;;;;;;;;;;-155.54;100.00;57697.75;5002594;28;19963;-63
2022/08/28 11:59:13;;;;;;;;;;;;;;;-155.54;100.00;57697.75;5001566;28;19956;-62
2022/08/28 12:01:39;;;;;;;;;;;;;;;-155.54;100.00;57697.75;4984686;28;20500;-62
2022/08/28 12:04:05;;;;;;;;;;;;;;;-155.54;100.00;57697.75;5001976;28;19953;-62
2022/08/28 12:06:46;;;;;;;;;;;;;;;-155.54;100.00;57697.75;4981254;28;19921;-62
2022/08/28 12:09:12;;;;;;;;;;;;;;;-155.54;100.00;57697.75;4998580;28;19921;-62
2022/08/28 12:11:40;;;;;;;;;;;;;;;-155.54;100.00;57697.75;5002088;28;19920;-62
2022/08/28 12:14:28;;;;;;;;;;;;;;;-155.54;100.00;57697.75;4998225;28;19921;-62
2022/08/28 12:16:59;;;;;;;;;;;;;;;-155.54;100.00;57697.75;4993901;28;20008;-63
2022/08/28 12:19:25;;;;;;;;;;;;;;;-155.54;100.00;57697.75;4994449;28;19925;-68
2022/08/28 12:21:50;;;;;;;;;;;;;;;-155.54;100.00;57697.75;4982824;28;19921;-68
2022/08/28 12:24:20;;;;;;;;;;;;;;;-155.54;100.00;57697.75;4999835;28;19975;-63
2022/08/28 12:26:46;;;;;;;;;;;;;;;-155.54;100.00;57697.75;5000069;28;20314;-63
2022/08/28 12:29:25;;;;;;;;;;;;;;;-155.54;100.00;57697.75;4998277;28;20013;-63